Baltimore, Maryland
Traffic Map
Current Weather Conditions
Baltimore, Maryland
Scattered Clouds Light Fog
Scattered Clouds
72°
Feels Like: 72°
Wind Chill: 72° Ceiling: Unl
Heat Index: 72° Visibility: 10mi
Dew Point: 67° Wind: 0mph
Humidity: 84% Direction: ° ()
Pressure: 29.97in Gusts: 0mph
Raw Report DataKBWI 240954Z 00000KT 10SM MIFG FEW030 FEW075 FEW110 SCT250 22/19 A2997 RMK AO2 SLP146 CB DSNT SE MOV SE ACC DSNT S T02220194
Traffic Incident Summary
Active as of:
Severity:
Category:
InformationThere was an issue retrieving the traffic information for this location. Please try a different location or try again shortly.
Advertisements
Track Severe Weather on mobile